createdAt,value
2023-01-09T00:01:31.280Z,99553.69
2023-01-09T00:03:57.896Z,99546.19
2023-01-09T00:06:24.366Z,99543.78
2023-01-09T00:08:51.025Z,99550.66
2023-01-09T00:11:19.153Z,99555.06
2023-01-09T00:13:47.085Z,99556.81
2023-01-09T00:16:14.287Z,99552.72
2023-01-09T00:18:40.803Z,99557.00
2023-01-09T00:21:09.971Z,99551.91
2023-01-09T00:23:37.035Z,99554.56
2023-01-09T00:26:06.222Z,99558.91
2023-01-09T00:28:34.347Z,99560.75
2023-01-09T00:31:02.432Z,99560.06
2023-01-09T00:33:32.859Z,99556.00
2023-01-09T00:35:59.395Z,99564.56
2023-01-09T00:38:26.198Z,99555.34
2023-01-09T00:40:54.152Z,99566.44
2023-01-09T00:43:24.012Z,99552.19
2023-01-09T00:45:50.995Z,99550.56
2023-01-09T00:48:28.177Z,99558.25
2023-01-09T00:50:58.331Z,99559.19
2023-01-09T00:53:29.966Z,99554.28
2023-01-09T00:56:01.112Z,99562.75
2023-01-09T00:58:28.179Z,99567.03
2023-01-09T01:00:54.659Z,99557.88
2023-01-09T01:03:21.086Z,99570.63
2023-01-09T01:06:06.385Z,99572.34
2023-01-09T01:08:32.982Z,99573.28
2023-01-09T01:11:04.756Z,99573.44
2023-01-09T01:13:31.188Z,99578.56
2023-01-09T01:15:57.703Z,99583.69
2023-01-09T01:18:24.241Z,99587.22
2023-01-09T01:20:50.635Z,99582.16
2023-01-09T01:23:17.315Z,99578.00
2023-01-09T01:25:44.081Z,99575.50
2023-01-09T01:28:10.676Z,99573.94
2023-01-09T01:30:41.871Z,99572.31
2023-01-09T01:33:09.658Z,99574.09
2023-01-09T01:35:36.500Z,99575.06
2023-01-09T01:38:02.960Z,99579.44
2023-01-09T01:40:29.900Z,99584.56
2023-01-09T01:42:58.555Z,99592.34
2023-01-09T01:45:28.182Z,99600.91
2023-01-09T01:48:09.570Z,99596.81
2023-01-09T01:50:44.745Z,99591.03
2023-01-09T01:53:14.536Z,99602.09
2023-01-09T01:56:04.635Z,99607.31
2023-01-09T01:58:33.863Z,99606.56
2023-01-09T02:01:00.488Z,99604.13
2023-01-09T02:03:29.082Z,99606.75
2023-01-09T02:05:55.756Z,99608.47
2023-01-09T02:08:22.639Z,99608.47
2023-01-09T02:10:49.926Z,99610.22
2023-01-09T02:13:17.098Z,99606.03
2023-01-09T02:16:08.712Z,99610.31
2023-01-09T02:18:52.098Z,99617.09
2023-01-09T02:21:32.421Z,99615.28
2023-01-09T02:24:20.139Z,99620.28
2023-01-09T02:27:04.856Z,99619.34
2023-01-09T02:30:02.188Z,99615.03
2023-01-09T02:32:56.496Z,99615.09
2023-01-09T02:35:49.887Z,99615.97
2023-01-09T02:38:34.593Z,99612.63
2023-01-09T02:41:10.129Z,99614.38
2023-01-09T02:43:36.624Z,99611.94
2023-01-09T02:46:03.141Z,99610.22
2023-01-09T02:48:30.728Z,99618.72
2023-01-09T02:51:18.424Z,99613.66
2023-01-09T02:54:10.989Z,99611.16
2023-01-09T02:57:07.837Z,99617.16
2023-01-09T02:59:43.999Z,99618.88
2023-01-09T03:02:22.319Z,99614.66
2023-01-09T03:05:07.614Z,99604.56
2023-01-09T03:07:48.173Z,99608.81
2023-01-09T03:10:32.770Z,99610.50
2023-01-09T03:13:01.492Z,99597.84
2023-01-09T03:15:32.737Z,99612.22
2023-01-09T03:18:00.851Z,99617.28
2023-01-09T03:20:27.793Z,99606.34
2023-01-09T03:22:56.702Z,99596.22
2023-01-09T03:25:24.121Z,99603.03
2023-01-09T03:28:04.965Z,99592.06
2023-01-09T03:30:33.314Z,99592.16
2023-01-09T03:32:59.895Z,99595.56
2023-01-09T03:35:27.006Z,99600.63
2023-01-09T03:37:53.652Z,99598.06
2023-01-09T03:40:21.464Z,99593.94
2023-01-09T03:42:48.274Z,99606.66
2023-01-09T03:45:14.947Z,99599.13
2023-01-09T03:47:41.445Z,99599.19
2023-01-09T03:50:08.469Z,99610.25
2023-01-09T03:52:36.078Z,99609.50
2023-01-09T03:55:02.704Z,99612.09
2023-01-09T03:57:29.145Z,99612.16
2023-01-09T03:59:55.710Z,99613.06
2023-01-09T04:02:22.167Z,99616.44
2023-01-09T04:04:48.659Z,99608.97
2023-01-09T04:07:17.764Z,99617.50
2023-01-09T04:09:44.282Z,99615.00
2023-01-09T04:12:10.769Z,99611.69
2023-01-09T04:14:37.239Z,99609.25
2023-01-09T04:17:03.741Z,99609.25
2023-01-09T04:19:30.218Z,99605.03
2023-01-09T04:21:56.670Z,99616.03
2023-01-09T04:24:26.005Z,99610.19
2023-01-09T04:26:52.401Z,99613.63
2023-01-09T04:29:19.025Z,99605.16
2023-01-09T04:31:45.491Z,99608.56
2023-01-09T04:34:12.055Z,99608.63
2023-01-09T04:36:38.782Z,99619.63
2023-01-09T04:39:05.477Z,99612.09
2023-01-09T04:41:50.021Z,99614.63
2023-01-09T04:44:17.562Z,99621.28
2023-01-09T04:46:44.191Z,99622.91
2023-01-09T04:49:10.992Z,99611.88
2023-01-09T04:51:37.522Z,99611.78
2023-01-09T04:54:04.217Z,99614.22
2023-01-09T04:56:30.723Z,99616.69
2023-01-09T04:58:57.351Z,99607.25
2023-01-09T05:01:24.064Z,99612.19
2023-01-09T05:03:50.710Z,99617.97
2023-01-09T05:06:17.245Z,99615.31
2023-01-09T05:08:43.902Z,99611.84
2023-01-09T05:11:10.430Z,99610.94
2023-01-09T05:13:36.886Z,99610.88
2023-01-09T05:16:03.336Z,99611.66
2023-01-09T05:18:29.976Z,99609.97
2023-01-09T05:20:56.410Z,99609.88
2023-01-09T05:23:22.905Z,99602.22
2023-01-09T05:25:49.368Z,99607.22
2023-01-09T05:28:16.133Z,99595.31
2023-01-09T05:30:42.683Z,99599.44
2023-01-09T05:33:09.228Z,99598.53
2023-01-09T05:35:35.662Z,99593.38
2023-01-09T05:38:02.115Z,99593.34
2023-01-09T05:40:32.346Z,99585.69
2023-01-09T05:43:05.033Z,99588.22
2023-01-09T05:45:31.512Z,99581.44
2023-01-09T05:47:58.008Z,99589.03
2023-01-09T05:50:24.593Z,99590.75
2023-01-09T05:52:51.110Z,99592.44
2023-01-09T05:55:17.805Z,99589.00
2023-01-09T05:57:44.257Z,99583.91
2023-01-09T06:00:11.493Z,99582.09
2023-01-09T06:02:38.003Z,99578.66
2023-01-09T06:05:04.843Z,99581.13
2023-01-09T06:07:31.314Z,99578.59
2023-01-09T06:09:57.815Z,99581.03
2023-01-09T06:12:24.283Z,99578.41
2023-01-09T06:14:50.735Z,99581.69
2023-01-09T06:17:17.168Z,99572.34
2023-01-09T06:19:43.809Z,99571.44
2023-01-09T06:22:10.234Z,99566.34
2023-01-09T06:24:36.716Z,99562.03
2023-01-09T06:27:03.315Z,99563.72
2023-01-09T06:29:29.902Z,99562.84
2023-01-09T06:31:56.321Z,99580.50
2023-01-09T06:34:22.850Z,99569.44
2023-01-09T06:36:49.305Z,99574.41
2023-01-09T06:39:15.875Z,99570.19
2023-01-09T06:41:42.423Z,99571.75
2023-01-09T06:44:08.932Z,99572.53
2023-01-09T06:46:35.429Z,99564.84
2023-01-09T06:49:02.053Z,99558.00
2023-01-09T06:51:28.536Z,99566.38
2023-01-09T06:53:55.015Z,99571.28
2023-01-09T06:56:21.557Z,99569.56
2023-01-09T06:58:48.556Z,99563.56
2023-01-09T07:01:15.280Z,99565.16
2023-01-09T07:03:41.932Z,99574.41
2023-01-09T07:06:08.480Z,99570.09
2023-01-09T07:08:35.207Z,99567.53
2023-01-09T07:11:01.614Z,99569.16
2023-01-09T07:13:28.113Z,99566.63
2023-01-09T07:15:54.612Z,99565.72
2023-01-09T07:18:21.285Z,99560.56
2023-01-09T07:20:48.418Z,99552.09
2023-01-09T07:23:15.399Z,99560.50
2023-01-09T07:25:42.927Z,99572.34
2023-01-09T07:28:09.611Z,99563.03
2023-01-09T07:30:36.020Z,99560.50
2023-01-09T07:33:05.478Z,99579.06
2023-01-09T07:35:32.309Z,99564.66
2023-01-09T07:37:58.802Z,99566.28
2023-01-09T07:40:25.290Z,99565.47
2023-01-09T07:42:54.869Z,99571.34
2023-01-09T07:45:21.439Z,99582.34
2023-01-09T07:47:47.980Z,99583.13
2023-01-09T07:50:14.581Z,99578.88
2023-01-09T07:52:41.015Z,99583.91
2023-01-09T07:55:08.268Z,99584.75
2023-01-09T07:57:34.838Z,99576.22
2023-01-09T08:00:03.435Z,99575.34
2023-01-09T08:02:29.988Z,99578.69
2023-01-09T08:04:56.458Z,99585.44
2023-01-09T08:07:22.915Z,99589.59
2023-01-09T08:09:49.485Z,99592.94
2023-01-09T08:12:16.039Z,99595.44
2023-01-09T08:14:42.647Z,99595.44
2023-01-09T08:17:10.950Z,99608.13
2023-01-09T08:19:37.625Z,99598.84
2023-01-09T08:22:06.964Z,99606.53
2023-01-09T08:24:33.370Z,99604.84
2023-01-09T08:26:59.803Z,99610.78
2023-01-09T08:29:26.471Z,99620.91
2023-01-09T08:31:52.965Z,99634.41
2023-01-09T08:34:22.813Z,99629.34
2023-01-09T08:36:49.470Z,99638.69
2023-01-09T08:39:16.084Z,99648.84
2023-01-09T08:42:01.115Z,99643.75
2023-01-09T08:44:46.066Z,99641.97
2023-01-09T08:47:16.195Z,99629.97
2023-01-09T08:49:42.793Z,99649.38
2023-01-09T08:52:09.330Z,99647.53
2023-01-09T08:54:38.947Z,99649.16
2023-01-09T08:57:07.158Z,99654.16
2023-01-09T08:59:34.429Z,99673.59
2023-01-09T09:02:00.933Z,99673.47
2023-01-09T09:04:27.454Z,99670.88
2023-01-09T09:06:53.916Z,99675.09
2023-01-09T09:09:20.405Z,99681.78
2023-01-09T09:11:46.840Z,99689.31
2023-01-09T09:14:31.869Z,99693.47
2023-01-09T09:16:58.354Z,99703.53
2023-01-09T09:19:24.997Z,99713.59
2023-01-09T09:21:51.644Z,99720.28
2023-01-09T09:24:18.173Z,99736.31
2023-01-09T09:26:44.843Z,99737.94
2023-01-09T09:29:11.854Z,99737.94
2023-01-09T09:31:38.728Z,99740.41
2023-01-09T09:34:09.176Z,99742.03
2023-01-09T09:36:35.696Z,99758.00
2023-01-09T09:39:02.796Z,99751.16
2023-01-09T09:41:47.644Z,99766.38
2023-01-09T09:44:32.419Z,99773.09
2023-01-09T09:47:27.832Z,99783.16
2023-01-09T09:50:06.315Z,99792.41
2023-01-09T09:53:10.834Z,99814.38
2023-01-09T09:55:40.627Z,99814.44
2023-01-09T09:58:28.802Z,99824.66
2023-01-09T10:00:58.802Z,99835.81
2023-01-09T10:03:36.335Z,99834.19
2023-01-09T10:06:11.788Z,99833.53
2023-01-09T10:08:53.367Z,99840.41
2023-01-09T10:11:35.218Z,99850.66
2023-01-09T10:14:08.134Z,99861.63
2023-01-09T10:16:45.687Z,99864.13
2023-01-09T10:19:41.646Z,99862.34
2023-01-09T10:22:45.249Z,99862.94
2023-01-09T10:25:36.979Z,99871.16
2023-01-09T10:28:27.443Z,99882.63
2023-01-09T10:31:16.349Z,99881.47
2023-01-09T10:33:56.899Z,99889.66
2023-01-09T10:36:55.420Z,99888.44
2023-01-09T10:39:29.111Z,99896.84
2023-01-09T10:42:02.156Z,99895.22
2023-01-09T10:44:39.276Z,99910.44
2023-01-09T10:47:15.614Z,99914.75
2023-01-09T10:49:42.345Z,99917.38
2023-01-09T10:52:20.710Z,99930.22
2023-01-09T10:54:58.126Z,99925.28
2023-01-09T10:57:45.782Z,99936.56
2023-01-09T11:00:23.338Z,99934.88
2023-01-09T11:02:51.372Z,99934.97
2023-01-09T11:05:32.675Z,99946.09
2023-01-09T11:08:22.662Z,99948.53
2023-01-09T11:10:51.057Z,99951.63
2023-01-09T11:13:23.567Z,99953.59
2023-01-09T11:16:22.497Z,99951.50
2023-01-09T11:18:49.178Z,99963.25
2023-01-09T11:21:32.879Z,99960.63
2023-01-09T11:24:18.992Z,99962.94
2023-01-09T11:26:46.821Z,99965.28
2023-01-09T11:29:15.804Z,99970.97
2023-01-09T11:31:50.631Z,99968.06
2023-01-09T11:34:19.907Z,99968.47
2023-01-09T11:36:47.409Z,99975.19
2023-01-09T11:39:30.236Z,99974.38
2023-01-09T11:42:06.268Z,99975.19
2023-01-09T11:44:33.534Z,99982.22
2023-01-09T11:47:00.362Z,99987.47
2023-01-09T11:49:29.767Z,99995.88
2023-01-09T11:52:22.351Z,100005.28
2023-01-09T11:55:04.393Z,100001.00
2023-01-09T11:57:32.096Z,100009.53
2023-01-09T12:00:18.480Z,100004.53
2023-01-09T12:03:46.607Z,100012.22
2023-01-09T12:06:24.792Z,100013.16
2023-01-09T12:09:12.312Z,100014.94
2023-01-09T12:12:06.226Z,100013.50
2023-01-09T12:15:00.796Z,100017.91
2023-01-09T12:17:43.355Z,100018.06
2023-01-09T12:20:31.231Z,100022.41
2023-01-09T12:23:13.648Z,100033.56
2023-01-09T12:25:54.576Z,100047.31
2023-01-09T12:28:48.019Z,100041.59
2023-01-09T12:31:36.906Z,100039.22
2023-01-09T12:34:29.738Z,100044.22
2023-01-09T12:37:36.395Z,100054.22
2023-01-09T12:40:19.091Z,100056.56
2023-01-09T12:43:13.670Z,100052.19
2023-01-09T12:45:52.900Z,100054.66
2023-01-09T12:48:41.300Z,100063.91
2023-01-09T12:51:35.815Z,100058.63
2023-01-09T12:54:10.868Z,100057.63
2023-01-09T12:56:43.554Z,100058.53
2023-01-09T12:59:20.963Z,100056.66
2023-01-09T13:01:50.171Z,100064.03
2023-01-09T13:04:31.013Z,100058.97
2023-01-09T13:07:09.729Z,100069.19
2023-01-09T13:09:47.604Z,100061.53
2023-01-09T13:12:18.427Z,100063.34
2023-01-09T13:14:58.111Z,100076.13
2023-01-09T13:17:42.037Z,100068.53
2023-01-09T13:20:23.115Z,100080.41
2023-01-09T13:22:52.392Z,100085.56
2023-01-09T13:25:28.019Z,100093.19
2023-01-09T13:28:00.923Z,100100.91
2023-01-09T13:30:49.997Z,100095.63
2023-01-09T13:33:30.650Z,100108.25
2023-01-09T13:35:59.489Z,100108.16
2023-01-09T13:38:31.640Z,100110.59
2023-01-09T13:41:29.410Z,100120.69
2023-01-09T13:43:59.915Z,100114.00
2023-01-09T13:46:36.789Z,100131.16
2023-01-09T13:49:04.105Z,100132.13
2023-01-09T13:51:43.871Z,100129.69
2023-01-09T13:54:10.651Z,100130.66
2023-01-09T13:57:17.067Z,100142.75
2023-01-09T13:59:44.859Z,100141.22
2023-01-09T14:02:39.313Z,100147.34
2023-01-09T14:05:11.494Z,100147.47
2023-01-09T14:07:41.336Z,100160.28
2023-01-09T14:10:30.162Z,100168.13
2023-01-09T14:12:58.100Z,100165.66
2023-01-09T14:15:33.019Z,100179.34
2023-01-09T14:18:01.697Z,100191.31
2023-01-09T14:20:37.887Z,100189.78
2023-01-09T14:23:28.102Z,100192.38
2023-01-09T14:25:54.832Z,100206.03
2023-01-09T14:28:29.898Z,100211.06
2023-01-09T14:30:59.498Z,100209.31
2023-01-09T14:33:28.271Z,100222.81
2023-01-09T14:36:02.056Z,100227.91
2023-01-09T14:38:37.261Z,100230.41
2023-01-09T14:41:03.634Z,100234.66
2023-01-09T14:43:54.876Z,100246.47
2023-01-09T14:46:23.117Z,100259.16
2023-01-09T14:49:34.921Z,100256.66
2023-01-09T14:52:15.912Z,100265.94
2023-01-09T14:54:44.085Z,100275.41
2023-01-09T14:57:24.656Z,100282.34
2023-01-09T14:59:59.078Z,100285.91
2023-01-09T15:02:37.173Z,100301.25
2023-01-09T15:05:09.517Z,100312.34
2023-01-09T15:07:44.392Z,100312.44
2023-01-09T15:10:19.629Z,100319.34
2023-01-09T15:12:51.253Z,100327.94
2023-01-09T15:15:20.227Z,100343.25
2023-01-09T15:17:55.074Z,100345.00
2023-01-09T15:20:29.115Z,100346.78
2023-01-09T15:22:56.418Z,100346.06
2023-01-09T15:25:40.449Z,100353.75
2023-01-09T15:28:32.340Z,100352.13
2023-01-09T15:31:07.869Z,100357.25
2023-01-09T15:33:35.414Z,100365.78
2023-01-09T15:36:09.903Z,100374.34
2023-01-09T15:38:37.493Z,100378.56
2023-01-09T15:41:08.859Z,100381.13
2023-01-09T15:43:40.664Z,100389.66
2023-01-09T15:46:07.552Z,100385.44
2023-01-09T15:48:35.680Z,100389.75
2023-01-09T15:51:14.508Z,100392.34
2023-01-09T15:53:42.348Z,100412.78
2023-01-09T15:56:11.847Z,100405.22
2023-01-09T15:58:41.138Z,100411.19
2023-01-09T16:01:41.401Z,100423.13
2023-01-09T16:04:15.961Z,100422.31
2023-01-09T16:06:46.875Z,100419.78
2023-01-09T16:09:30.883Z,100427.50
2023-01-09T16:12:05.792Z,100435.19
2023-01-09T16:14:45.627Z,100438.63
2023-01-09T16:17:16.971Z,100444.66
2023-01-09T16:20:01.084Z,100454.84
2023-01-09T16:22:33.521Z,100456.56
2023-01-09T16:25:21.304Z,100457.41
2023-01-09T16:28:30.503Z,100465.13
2023-01-09T16:31:09.904Z,100475.34
2023-01-09T16:33:50.132Z,100475.41
2023-01-09T16:36:17.283Z,100479.66
2023-01-09T16:38:43.857Z,100476.41
2023-01-09T16:41:40.940Z,100483.22
2023-01-09T16:44:12.717Z,100490.09
2023-01-09T16:46:45.638Z,100496.81
2023-01-09T16:49:23.860Z,100501.94
2023-01-09T16:51:51.334Z,100506.22
2023-01-09T16:54:18.235Z,100507.91
2023-01-09T16:56:49.142Z,100512.19
2023-01-09T16:59:20.720Z,100509.63
2023-01-09T17:01:51.416Z,100523.19
2023-01-09T17:04:20.151Z,100521.50
2023-01-09T17:06:49.074Z,100527.44
2023-01-09T17:09:24.097Z,100529.09
2023-01-09T17:11:51.726Z,100529.94
2023-01-09T17:14:18.228Z,100538.41
2023-01-09T17:16:47.692Z,100556.16
2023-01-09T17:19:20.723Z,100546.81
2023-01-09T17:21:47.347Z,100550.19
2023-01-09T17:24:33.131Z,100553.59
2023-01-09T17:27:19.935Z,100558.66
2023-01-09T17:29:46.570Z,100562.91
2023-01-09T17:32:17.374Z,100574.75
2023-01-09T17:34:44.407Z,100578.19
2023-01-09T17:37:18.913Z,100578.19
2023-01-09T17:39:45.940Z,100582.44
2023-01-09T17:42:12.534Z,100588.41
2023-01-09T17:44:39.153Z,100598.59
2023-01-09T17:47:07.094Z,100596.94
2023-01-09T17:49:33.743Z,100598.59
2023-01-09T17:52:00.296Z,100601.97
2023-01-09T17:54:26.885Z,100608.75
2023-01-09T17:56:54.440Z,100621.44
2023-01-09T17:59:22.183Z,100620.56
2023-01-09T18:01:48.845Z,100626.50
2023-01-09T18:04:15.489Z,100628.19
2023-01-09T18:06:42.070Z,100637.50
2023-01-09T18:09:17.514Z,100651.06
2023-01-09T18:11:44.896Z,100658.72
2023-01-09T18:14:13.520Z,100664.69
2023-01-09T18:16:40.451Z,100668.06
2023-01-09T18:19:07.332Z,100670.69
2023-01-09T18:21:33.852Z,100679.16
2023-01-09T18:24:02.074Z,100683.41
2023-01-09T18:26:28.638Z,100691.88
2023-01-09T18:28:57.917Z,100696.97
2023-01-09T18:31:27.281Z,100705.44
2023-01-09T18:33:56.481Z,100712.19
2023-01-09T18:36:30.724Z,100717.25
2023-01-09T18:38:59.848Z,100729.03
2023-01-09T18:41:27.185Z,100732.38
2023-01-09T18:43:58.436Z,100743.38
2023-01-09T18:46:26.466Z,100740.00
2023-01-09T18:49:01.152Z,100739.97
2023-01-09T18:51:28.772Z,100750.16
2023-01-09T18:53:55.813Z,100753.53
2023-01-09T18:56:23.368Z,100759.47
2023-01-09T18:58:50.115Z,100778.91
2023-01-09T19:01:18.144Z,100784.00
2023-01-09T19:03:45.243Z,100797.53
2023-01-09T19:06:12.133Z,100808.50
2023-01-09T19:08:39.024Z,100805.97
2023-01-09T19:11:06.137Z,100814.47
2023-01-09T19:13:35.049Z,100813.66
2023-01-09T19:16:02.334Z,100808.56
2023-01-09T19:18:32.439Z,100813.66
2023-01-09T19:20:59.006Z,100817.88
2023-01-09T19:23:25.729Z,100831.47
2023-01-09T19:25:53.918Z,100834.84
2023-01-09T19:29:17.846Z,100841.66
2023-01-09T19:31:46.563Z,100845.94
2023-01-09T19:34:13.604Z,100851.06
2023-01-09T19:36:40.243Z,100857.88
2023-01-09T19:39:07.326Z,100876.53
2023-01-09T19:41:33.894Z,100874.88
2023-01-09T19:44:00.437Z,100879.09
2023-01-09T19:46:28.478Z,100879.97
2023-01-09T19:48:58.973Z,100890.16
2023-01-09T19:51:25.890Z,100898.66
2023-01-09T19:53:55.483Z,100901.25
2023-01-09T19:56:24.381Z,100908.03
2023-01-09T19:58:56.086Z,100918.25
2023-01-09T20:01:31.347Z,100918.25
2023-01-09T20:04:03.463Z,100913.19
2023-01-09T20:06:31.941Z,100931.00
2023-01-09T20:09:01.151Z,100925.06
2023-01-09T20:11:29.942Z,100930.16
2023-01-09T20:13:57.110Z,100931.88
2023-01-09T20:16:30.031Z,100938.66
2023-01-09T20:19:00.203Z,100944.59
2023-01-09T20:21:28.519Z,100945.41
2023-01-09T20:23:58.476Z,100955.59
2023-01-09T20:26:26.113Z,100955.59
2023-01-09T20:28:54.131Z,100969.16
2023-01-09T20:31:22.795Z,100974.25
2023-01-09T20:33:54.191Z,100978.50
2023-01-09T20:36:27.504Z,100981.00
2023-01-09T20:39:04.780Z,100992.00
2023-01-09T20:41:31.634Z,100994.50
2023-01-09T20:44:04.957Z,100994.47
2023-01-09T20:46:38.052Z,100995.28
2023-01-09T20:49:07.656Z,101002.91
2023-01-09T20:51:42.252Z,101013.94
2023-01-09T20:54:09.295Z,101003.75
2023-01-09T20:56:36.883Z,101014.78
2023-01-09T20:59:04.462Z,101024.13
2023-01-09T21:01:31.005Z,101027.53
2023-01-09T21:03:58.023Z,101038.56
2023-01-09T21:06:27.225Z,101033.50
2023-01-09T21:08:54.131Z,101037.75
2023-01-09T21:11:21.628Z,101041.16
2023-01-09T21:13:49.176Z,101043.69
2023-01-09T21:16:22.473Z,101045.38
2023-01-09T21:18:49.240Z,101046.22
2023-01-09T21:21:19.392Z,101048.75
2023-01-09T21:23:47.287Z,101052.13
2023-01-09T21:26:15.302Z,101052.09
2023-01-09T21:28:48.994Z,101053.81
2023-01-09T21:31:21.000Z,101068.19
2023-01-09T21:33:48.322Z,101062.28
2023-01-09T21:36:16.005Z,101069.06
2023-01-09T21:38:43.431Z,101075.84
2023-01-09T21:41:29.084Z,101076.66
2023-01-09T21:44:14.121Z,101080.91
2023-01-09T21:46:52.762Z,101094.47
2023-01-09T21:49:20.842Z,101092.75
2023-01-09T21:51:47.830Z,101097.84
2023-01-09T21:54:14.761Z,101104.63
2023-01-09T21:56:41.442Z,101108.00
2023-01-09T21:59:09.004Z,101109.69
2023-01-09T22:01:36.074Z,101115.66
2023-01-09T22:04:03.287Z,101124.09
2023-01-09T22:06:30.251Z,101129.19
2023-01-09T22:08:56.977Z,101139.31
2023-01-09T22:11:24.589Z,101140.16
2023-01-09T22:13:52.251Z,101136.78
2023-01-09T22:16:19.680Z,101133.41
2023-01-09T22:18:46.374Z,101142.72
2023-01-09T22:21:13.186Z,101144.38
2023-01-09T22:23:39.722Z,101152.00
2023-01-09T22:26:11.431Z,101159.63
2023-01-09T22:28:38.303Z,101168.06
2023-01-09T22:31:12.325Z,101171.47
2023-01-09T22:33:39.001Z,101175.69
2023-01-09T22:36:11.439Z,101182.44
2023-01-09T22:38:38.646Z,101191.75
2023-01-09T22:41:05.269Z,101199.38
2023-01-09T22:43:32.224Z,101206.13
2023-01-09T22:46:11.389Z,101217.97
2023-01-09T22:48:42.156Z,101223.06
2023-01-09T22:51:14.312Z,101223.06
2023-01-09T22:53:41.072Z,101231.53
2023-01-09T22:56:11.547Z,101235.75
2023-01-09T22:58:38.463Z,101234.91
2023-01-09T23:01:05.986Z,101235.75
2023-01-09T23:03:32.995Z,101244.22
2023-01-09T23:06:03.791Z,101252.69
2023-01-09T23:08:31.420Z,101256.09
2023-01-09T23:10:58.528Z,101261.16
2023-01-09T23:13:25.503Z,101270.50
2023-01-09T23:15:55.138Z,101272.16
2023-01-09T23:18:21.817Z,101276.41
2023-01-09T23:20:57.647Z,101279.78
2023-01-09T23:23:26.124Z,101274.72
2023-01-09T23:25:55.595Z,101282.31
2023-01-09T23:28:22.868Z,101296.75
2023-01-09T23:30:49.407Z,101293.34
2023-01-09T23:33:17.202Z,101300.13
2023-01-09T23:35:44.591Z,101308.59
2023-01-09T23:38:11.762Z,101311.13
2023-01-09T23:40:42.091Z,101315.34
2023-01-09T23:43:13.253Z,101319.56
2023-01-09T23:45:43.575Z,101322.97
2023-01-09T23:48:13.185Z,101320.44
2023-01-09T23:50:43.892Z,101323.81
2023-01-09T23:53:10.677Z,101325.53
2023-01-09T23:55:37.303Z,101327.19
2023-01-09T23:58:04.021Z,101331.41
